Lakota, Iowa
Current Conditions -  °F | °C
As of 2:35 PM on Sunday 21 Dec 2014 (Local Time) from KAXA Reporting Station
Haze Haze  
Wind Chill: 26°   Ceiling: 300
Heat Index: 37°   Visibility: 1.2mi
Dew Point: 37°   Wind: 24mph
Humidity: 100%   Direction: 180°S
Pressure: 29.72"   Gusts: 31mph
Location:  43.38°N, 94.09°W
Report Text: KAXA 212035Z AUTO 18021G27KT 1 1/4SM BR OVC003 03/03 A2972 RMK AO2
Loading
Personal Weather Stations






























Interactive Weather Map New forecast layout! Learn more

10-Day Weather Forecast

Advertisements
Track Severe Weather on mobile